createdAt,value
2022-12-17T00:00:36.530Z,23.42
2022-12-17T00:03:18.443Z,34.35
2022-12-17T00:06:04.053Z,26.48
2022-12-17T00:08:49.483Z,23.42
2022-12-17T00:11:34.821Z,18.77
2022-12-17T00:14:23.293Z,22.70
2022-12-17T00:17:13.286Z,25.02
2022-12-17T00:19:58.831Z,27.75
2022-12-17T00:22:45.443Z,22.67
2022-12-17T00:25:34.091Z,31.80
2022-12-17T00:28:19.808Z,20.83
2022-12-17T00:31:10.240Z,24.13
2022-12-17T00:33:57.320Z,26.75
2022-12-17T00:36:42.895Z,27.50
2022-12-17T00:39:28.360Z,26.40
2022-12-17T00:48:12.465Z,28.52
2022-12-17T00:50:59.372Z,24.98
2022-12-17T00:53:44.787Z,31.50
2022-12-17T00:56:30.116Z,22.83
2022-12-17T00:59:15.562Z,28.08
2022-12-17T01:02:01.254Z,24.67
2022-12-17T01:04:46.584Z,29.55
2022-12-17T01:07:33.239Z,23.50
2022-12-17T01:10:18.740Z,26.23
2022-12-17T01:13:04.234Z,22.63
2022-12-17T01:15:49.884Z,26.08
2022-12-17T01:18:37.039Z,32.30
2022-12-17T01:21:22.269Z,25.88
2022-12-17T01:24:09.236Z,29.75
2022-12-17T01:26:56.219Z,24.30
2022-12-17T01:29:41.852Z,25.05
2022-12-17T01:32:27.309Z,25.33
2022-12-17T01:35:12.856Z,32.33
2022-12-17T01:37:58.397Z,26.95
2022-12-17T01:40:45.262Z,24.65
2022-12-17T01:43:31.883Z,26.33
2022-12-17T01:46:17.738Z,25.27
2022-12-17T01:49:06.064Z,22.13
2022-12-17T01:51:52.542Z,23.17
2022-12-17T01:54:38.455Z,21.67
2022-12-17T01:57:34.588Z,24.63
2022-12-17T02:00:22.840Z,20.98
2022-12-17T02:03:08.324Z,26.33
2022-12-17T02:06:01.838Z,23.77
2022-12-17T02:08:55.642Z,23.50
2022-12-17T02:11:49.584Z,23.25
2022-12-17T02:14:42.182Z,25.65
2022-12-17T02:20:29.037Z,18.60
2022-12-17T02:23:24.642Z,21.23
2022-12-17T02:26:14.147Z,20.00
2022-12-17T02:29:04.556Z,23.38
2022-12-17T02:31:50.739Z,22.90
2022-12-17T02:34:36.288Z,23.02
2022-12-17T02:37:21.953Z,21.10
2022-12-17T02:40:07.479Z,22.45
2022-12-17T02:42:53.400Z,25.38
2022-12-17T02:45:41.706Z,21.88
2022-12-17T02:48:30.908Z,30.50
2022-12-17T02:51:17.136Z,25.10
2022-12-17T02:54:04.140Z,23.45
2022-12-17T02:56:49.375Z,19.15
2022-12-17T02:59:40.281Z,23.00
2022-12-17T03:02:27.136Z,24.27
2022-12-17T03:05:42.887Z,23.35
2022-12-17T03:08:18.274Z,23.33
2022-12-17T03:11:03.546Z,20.42
2022-12-17T03:13:48.994Z,28.13
2022-12-17T03:16:38.081Z,22.02
2022-12-17T03:19:25.100Z,20.50
2022-12-17T03:22:10.738Z,21.90
2022-12-17T03:24:56.145Z,25.95
2022-12-17T03:27:46.166Z,24.75
2022-12-17T03:30:35.778Z,27.23
2022-12-17T03:33:24.184Z,17.92
2022-12-17T03:36:13.068Z,24.95
2022-12-17T03:38:58.595Z,20.20
2022-12-17T03:41:44.146Z,17.33
2022-12-17T03:44:29.694Z,19.83
2022-12-17T03:47:15.166Z,20.75
2022-12-17T03:50:00.707Z,23.85
2022-12-17T03:52:47.872Z,27.13
2022-12-17T03:55:33.699Z,25.27
2022-12-17T03:58:19.202Z,24.48
2022-12-17T04:01:06.685Z,23.42
2022-12-17T04:03:52.238Z,24.40
2022-12-17T04:06:37.847Z,22.73
2022-12-17T04:09:24.764Z,22.95
2022-12-17T04:12:10.258Z,18.50
2022-12-17T04:14:56.038Z,13.65
2022-12-17T04:17:41.368Z,21.63
2022-12-17T04:20:27.475Z,23.15
2022-12-17T04:23:15.538Z,21.52
2022-12-17T04:26:02.294Z,19.90
2022-12-17T04:28:48.029Z,22.45
2022-12-17T04:31:33.825Z,19.83
2022-12-17T04:34:19.400Z,19.35
2022-12-17T04:37:05.012Z,24.00
2022-12-17T04:39:50.240Z,19.55
2022-12-17T04:42:37.374Z,24.17
2022-12-17T04:45:23.547Z,24.88
2022-12-17T04:48:09.121Z,18.42
2022-12-17T04:50:54.415Z,19.95
2022-12-17T04:53:41.611Z,23.92
2022-12-17T04:56:27.231Z,20.52
2022-12-17T04:59:14.026Z,23.05
2022-12-17T05:01:59.712Z,17.25
2022-12-17T05:04:45.121Z,17.00
2022-12-17T05:07:30.414Z,23.75
2022-12-17T05:10:15.919Z,21.02
2022-12-17T05:13:01.343Z,24.67
2022-12-17T05:15:52.948Z,19.85
2022-12-17T05:18:38.884Z,24.45
2022-12-17T05:21:24.928Z,20.73
2022-12-17T05:24:10.621Z,17.50
2022-12-17T05:26:56.206Z,19.70
2022-12-17T05:29:42.839Z,29.80
2022-12-17T05:32:29.582Z,27.20
2022-12-17T05:35:15.060Z,22.70
2022-12-17T05:38:02.978Z,21.38
2022-12-17T05:40:48.546Z,21.15
2022-12-17T05:43:34.303Z,24.50
2022-12-17T05:46:21.363Z,20.38
2022-12-17T05:49:08.417Z,25.73
2022-12-17T05:51:53.844Z,21.67
2022-12-17T05:54:40.898Z,21.10
2022-12-17T05:57:26.581Z,26.23
2022-12-17T06:00:12.037Z,27.70
2022-12-17T06:02:59.971Z,19.75
2022-12-17T06:05:47.032Z,19.17
2022-12-17T06:08:32.366Z,23.38
2022-12-17T06:11:19.143Z,21.05
2022-12-17T06:14:05.836Z,24.65
2022-12-17T06:16:51.475Z,18.05
2022-12-17T06:19:37.199Z,17.85
2022-12-17T06:22:23.996Z,21.05
2022-12-17T06:25:12.474Z,22.13
2022-12-17T06:27:58.118Z,22.38
2022-12-17T06:30:43.786Z,19.10
2022-12-17T06:33:31.046Z,25.17
2022-12-17T06:36:22.637Z,22.27
2022-12-17T06:39:10.236Z,15.10
2022-12-17T06:42:02.198Z,21.80
2022-12-17T06:44:49.580Z,34.13
2022-12-17T06:47:35.489Z,29.52
2022-12-17T06:50:23.578Z,20.83
2022-12-17T06:53:17.744Z,23.48
2022-12-17T06:56:06.337Z,22.95
2022-12-17T06:58:52.028Z,29.58
2022-12-17T07:01:40.845Z,21.60
2022-12-17T07:04:29.871Z,22.90
2022-12-17T07:07:18.327Z,28.75
2022-12-17T07:10:05.908Z,18.50
2022-12-17T07:12:56.331Z,28.80
2022-12-17T07:15:42.062Z,21.77
2022-12-17T07:18:27.534Z,23.55
2022-12-17T07:21:12.939Z,21.63
2022-12-17T07:24:01.179Z,24.15
2022-12-17T07:26:46.451Z,28.80
2022-12-17T07:29:33.190Z,19.95
2022-12-17T07:32:18.727Z,22.48
2022-12-17T07:35:06.036Z,28.20
2022-12-17T07:37:51.596Z,25.90
2022-12-17T07:40:37.072Z,25.98
2022-12-17T07:43:29.540Z,28.38
2022-12-17T07:46:16.617Z,18.15
2022-12-17T07:49:02.242Z,27.00
2022-12-17T07:51:47.667Z,20.20
2022-12-17T07:54:33.365Z,30.35
2022-12-17T07:57:19.171Z,23.25
2022-12-17T08:00:04.407Z,30.00
2022-12-17T08:02:51.594Z,25.40
2022-12-17T08:05:37.278Z,28.35
2022-12-17T08:08:26.718Z,26.48
2022-12-17T08:11:12.091Z,30.30
2022-12-17T08:13:57.076Z,34.85
2022-12-17T08:16:42.691Z,39.75
2022-12-17T08:19:30.048Z,32.72
2022-12-17T08:22:15.524Z,36.83
2022-12-17T08:25:01.071Z,26.35
2022-12-17T08:27:46.688Z,37.40
2022-12-17T08:30:32.634Z,33.30
2022-12-17T08:33:23.277Z,33.67
2022-12-17T08:36:14.143Z,34.05
2022-12-17T08:39:00.056Z,29.35
2022-12-17T08:41:49.708Z,39.10
2022-12-17T08:47:25.179Z,26.55
2022-12-17T08:50:10.701Z,48.17
2022-12-17T08:52:57.479Z,44.15
2022-12-17T08:55:42.734Z,36.90
2022-12-17T08:58:28.394Z,45.80
2022-12-17T09:01:17.222Z,42.60
2022-12-17T09:04:03.627Z,36.60
2022-12-17T09:06:49.154Z,40.60
2022-12-17T09:09:46.299Z,39.60
2022-12-17T09:12:31.799Z,35.53
2022-12-17T09:15:17.080Z,31.65
2022-12-17T09:18:02.729Z,33.22
2022-12-17T09:20:48.013Z,38.13
2022-12-17T09:23:34.547Z,36.20
2022-12-17T09:26:24.422Z,38.20
2022-12-17T09:29:09.835Z,33.90
2022-12-17T09:31:55.301Z,36.45
2022-12-17T09:34:41.121Z,48.20
2022-12-17T09:37:26.578Z,35.60
2022-12-17T09:40:12.292Z,40.92
2022-12-17T09:43:04.130Z,45.92
2022-12-17T09:45:54.808Z,39.00
2022-12-17T09:48:49.794Z,48.30
2022-12-17T09:51:41.118Z,46.42
2022-12-17T09:54:37.302Z,53.55
2022-12-17T09:57:24.727Z,51.00
2022-12-17T10:00:11.891Z,59.40
2022-12-17T10:03:00.060Z,50.47
2022-12-17T10:05:49.166Z,58.60
2022-12-17T10:08:38.878Z,43.47
2022-12-17T10:11:47.247Z,40.72
2022-12-17T10:14:36.535Z,62.20
2022-12-17T10:17:24.043Z,54.85
2022-12-17T10:20:12.598Z,44.53
2022-12-17T10:23:03.030Z,50.55
2022-12-17T10:25:48.357Z,48.30
2022-12-17T10:28:35.661Z,52.72
2022-12-17T10:31:28.028Z,50.22
2022-12-17T10:34:16.543Z,47.67
2022-12-17T10:37:07.412Z,46.85
2022-12-17T10:39:56.206Z,50.15
2022-12-17T10:42:43.884Z,57.00
2022-12-17T10:45:41.097Z,51.42
2022-12-17T10:48:40.739Z,59.58
2022-12-17T10:51:39.980Z,58.63
2022-12-17T10:54:34.335Z,46.88
2022-12-17T10:57:20.355Z,51.25
2022-12-17T11:00:06.388Z,51.25
2022-12-17T11:02:52.117Z,53.75
2022-12-17T11:05:45.511Z,66.57
2022-12-17T11:08:35.000Z,56.38
2022-12-17T11:11:26.537Z,47.30
2022-12-17T11:14:18.697Z,47.38
2022-12-17T11:17:11.211Z,32.45
2022-12-17T11:20:02.979Z,50.63
2022-12-17T11:22:55.433Z,35.87
2022-12-17T11:25:57.221Z,41.67
2022-12-17T11:28:47.815Z,60.35
2022-12-17T11:31:58.843Z,50.47
2022-12-17T11:34:55.061Z,58.78
2022-12-17T11:37:50.543Z,58.53
2022-12-17T11:40:43.507Z,53.80
2022-12-17T11:43:39.218Z,51.25
2022-12-17T11:46:33.869Z,49.78
2022-12-17T11:49:28.497Z,50.45
2022-12-17T11:52:23.356Z,48.22
2022-12-17T11:55:17.885Z,61.58
2022-12-17T11:58:14.059Z,67.18
2022-12-17T12:01:09.237Z,58.25
2022-12-17T12:04:07.163Z,58.42
2022-12-17T12:07:00.448Z,55.55
2022-12-17T12:09:52.323Z,55.78
2022-12-17T12:12:52.675Z,45.35
2022-12-17T12:15:45.244Z,54.03
2022-12-17T12:21:44.085Z,69.60
2022-12-17T12:24:40.794Z,56.50
2022-12-17T12:27:42.260Z,54.33
2022-12-17T12:30:34.290Z,72.73
2022-12-17T12:33:30.084Z,65.95
2022-12-17T12:36:20.529Z,51.05
2022-12-17T12:39:10.268Z,49.50
2022-12-17T12:42:15.179Z,60.92
2022-12-17T12:45:07.824Z,48.05
2022-12-17T12:50:49.210Z,48.08
2022-12-17T12:53:36.224Z,59.83
2022-12-17T12:56:22.126Z,49.08
2022-12-17T12:59:07.998Z,55.80
2022-12-17T13:01:55.625Z,59.10
2022-12-17T13:04:49.562Z,62.25
2022-12-17T13:07:26.091Z,49.17
2022-12-17T13:09:57.814Z,47.75
2022-12-17T13:12:36.164Z,38.40
2022-12-17T13:15:32.795Z,53.63
2022-12-17T13:18:16.377Z,60.08
2022-12-17T13:20:44.793Z,55.17
2022-12-17T13:23:27.622Z,66.78
2022-12-17T13:26:17.127Z,62.40
2022-12-17T13:28:51.387Z,61.58
2022-12-17T13:31:24.726Z,66.78
2022-12-17T13:34:01.622Z,52.70
2022-12-17T13:36:35.990Z,59.33
2022-12-17T13:39:11.333Z,61.72
2022-12-17T13:41:40.807Z,52.28
2022-12-17T13:44:21.524Z,60.80
2022-12-17T13:46:53.477Z,56.15
2022-12-17T13:49:23.965Z,57.97
2022-12-17T13:52:09.581Z,76.90
2022-12-17T13:54:42.467Z,56.30
2022-12-17T13:57:16.851Z,55.72
2022-12-17T13:59:52.214Z,54.50
2022-12-17T14:02:28.720Z,42.28
2022-12-17T14:05:00.729Z,58.47
2022-12-17T14:07:36.132Z,68.43
2022-12-17T14:10:05.509Z,46.65
2022-12-17T14:12:35.446Z,52.92
2022-12-17T14:15:08.291Z,42.60
2022-12-17T14:17:39.257Z,59.58
2022-12-17T14:20:12.264Z,46.03
2022-12-17T14:22:47.818Z,56.58
2022-12-17T14:25:21.735Z,42.22
2022-12-17T14:27:57.713Z,48.17
2022-12-17T14:30:34.428Z,60.25
2022-12-17T14:33:02.452Z,45.67
2022-12-17T14:35:37.988Z,46.88
2022-12-17T14:38:06.109Z,48.95
2022-12-17T14:40:34.307Z,53.90
2022-12-17T14:43:03.688Z,50.13
2022-12-17T14:45:31.744Z,46.90
2022-12-17T14:48:01.222Z,59.13
2022-12-17T14:50:32.606Z,49.63
2022-12-17T14:53:01.591Z,46.57
2022-12-17T14:55:35.746Z,49.15
2022-12-17T14:58:18.068Z,57.03
2022-12-17T15:00:51.474Z,50.15
2022-12-17T15:03:22.925Z,46.78
2022-12-17T15:05:54.487Z,47.28
2022-12-17T15:08:22.808Z,54.88
2022-12-17T15:10:50.815Z,60.13
2022-12-17T15:13:20.138Z,73.32
2022-12-17T15:15:48.075Z,62.55
2022-12-17T15:18:16.001Z,50.97
2022-12-17T15:20:48.706Z,67.43
2022-12-17T15:23:18.777Z,52.22
2022-12-17T15:25:47.851Z,56.58
2022-12-17T15:28:19.288Z,54.42
2022-12-17T15:30:49.534Z,41.72
2022-12-17T15:33:17.945Z,56.35
2022-12-17T15:35:45.942Z,49.55
2022-12-17T15:38:13.971Z,58.53
2022-12-17T15:40:42.176Z,63.42
2022-12-17T15:43:13.971Z,54.38
2022-12-17T15:48:26.705Z,61.25
2022-12-17T15:50:54.683Z,59.97
2022-12-17T15:53:24.976Z,58.45
2022-12-17T15:56:04.097Z,60.28
2022-12-17T15:58:32.569Z,61.78
2022-12-17T16:01:01.712Z,57.22
2022-12-17T16:03:33.533Z,44.72
2022-12-17T16:06:02.644Z,55.08
2022-12-17T16:08:32.871Z,55.67
2022-12-17T16:11:06.361Z,61.78
2022-12-17T16:13:34.310Z,57.47
2022-12-17T16:16:06.324Z,51.60
2022-12-17T16:18:38.564Z,61.17
2022-12-17T16:21:08.499Z,58.67
2022-12-17T16:23:36.915Z,52.47
2022-12-17T16:26:06.804Z,58.92
2022-12-17T16:28:36.152Z,57.03
2022-12-17T16:31:07.929Z,44.78
2022-12-17T16:33:38.934Z,37.65
2022-12-17T16:36:08.855Z,48.75
2022-12-17T16:38:37.289Z,57.45
2022-12-17T16:41:08.626Z,53.88
2022-12-17T16:43:36.799Z,62.45
2022-12-17T16:46:09.218Z,53.42
2022-12-17T16:48:41.511Z,59.13
2022-12-17T16:51:21.478Z,51.65
2022-12-17T16:53:57.637Z,57.65
2022-12-17T16:56:28.351Z,48.50
2022-12-17T16:58:56.357Z,53.75
2022-12-17T17:01:27.116Z,56.33
2022-12-17T17:03:56.822Z,49.50
2022-12-17T17:06:30.118Z,50.95
2022-12-17T17:09:03.844Z,55.00
2022-12-17T17:11:31.936Z,49.78
2022-12-17T17:13:59.895Z,63.70
2022-12-17T17:16:28.255Z,54.70
2022-12-17T17:18:58.127Z,53.17
2022-12-17T17:21:29.439Z,50.63
2022-12-17T17:24:00.999Z,30.38
2022-12-17T17:26:30.226Z,36.75
2022-12-17T17:28:58.349Z,69.28
2022-12-17T17:32:01.286Z,53.33
2022-12-17T17:34:16.758Z,51.38
2022-12-17T17:36:44.871Z,59.30
2022-12-17T17:39:18.791Z,63.95
2022-12-17T17:41:46.765Z,57.65
2022-12-17T17:44:17.312Z,53.38
2022-12-17T17:46:45.398Z,51.65
2022-12-17T17:49:17.433Z,51.80
2022-12-17T17:54:35.365Z,52.42
2022-12-17T17:57:03.298Z,53.45
2022-12-17T17:59:35.550Z,46.60
2022-12-17T18:02:04.420Z,54.33
2022-12-17T18:04:35.500Z,45.92
2022-12-17T18:09:52.748Z,48.15
2022-12-17T18:12:38.197Z,41.22
2022-12-17T18:15:16.273Z,43.13
2022-12-17T18:17:50.620Z,50.10
2022-12-17T18:20:21.352Z,47.90
2022-12-17T18:22:51.826Z,47.72
2022-12-17T18:25:19.953Z,49.58
2022-12-17T18:27:47.882Z,51.78
2022-12-17T18:30:16.946Z,43.53
2022-12-17T18:32:50.582Z,49.78
2022-12-17T18:35:18.576Z,51.05
2022-12-17T18:37:46.747Z,47.72
2022-12-17T18:40:19.286Z,53.33
2022-12-17T18:43:04.810Z,58.38
2022-12-17T18:45:32.711Z,48.90
2022-12-17T18:48:00.664Z,66.57
2022-12-17T18:50:28.657Z,53.40
2022-12-17T18:52:56.621Z,56.42
2022-12-17T18:55:25.941Z,45.78
2022-12-17T18:57:53.878Z,61.65
2022-12-17T19:00:22.205Z,47.92
2022-12-17T19:02:50.239Z,52.05
2022-12-17T19:05:18.353Z,55.40
2022-12-17T19:07:46.278Z,61.55
2022-12-17T19:10:14.234Z,55.13
2022-12-17T19:12:43.530Z,47.97
2022-12-17T19:15:12.740Z,48.90
2022-12-17T19:17:40.718Z,45.80
2022-12-17T19:20:10.090Z,52.60
2022-12-17T19:22:38.158Z,54.33
2022-12-17T19:25:06.727Z,64.97
2022-12-17T19:27:34.733Z,50.58
2022-12-17T19:30:04.140Z,49.72
2022-12-17T19:32:32.235Z,49.75
2022-12-17T19:35:00.194Z,65.20
2022-12-17T19:37:28.191Z,57.95
2022-12-17T19:39:56.229Z,51.75
2022-12-17T19:42:32.094Z,54.70
2022-12-17T19:45:04.884Z,60.80
2022-12-17T19:47:32.827Z,53.40
2022-12-17T19:50:00.815Z,57.88
2022-12-17T19:52:28.848Z,58.13
2022-12-17T19:54:56.758Z,48.08
2022-12-17T19:57:26.630Z,47.05
2022-12-17T19:59:57.493Z,63.47
2022-12-17T20:02:32.292Z,59.33
2022-12-17T20:05:00.931Z,53.72
2022-12-17T20:07:28.959Z,53.85
2022-12-17T20:09:56.871Z,62.00
2022-12-17T20:12:24.842Z,58.35
2022-12-17T20:14:52.777Z,55.58
2022-12-17T20:17:20.784Z,54.97
2022-12-17T20:19:53.273Z,48.28
2022-12-17T20:22:21.399Z,51.15
2022-12-17T20:24:50.283Z,49.38
2022-12-17T20:27:18.573Z,49.08
2022-12-17T20:29:46.519Z,62.38
2022-12-17T20:32:14.475Z,50.22
2022-12-17T20:34:42.530Z,58.00
2022-12-17T20:37:11.856Z,74.63
2022-12-17T20:39:39.917Z,57.50
2022-12-17T20:42:10.310Z,66.20
2022-12-17T20:44:38.366Z,64.43
2022-12-17T20:47:06.745Z,65.65
2022-12-17T20:49:34.923Z,58.47
2022-12-17T20:52:02.871Z,51.58
2022-12-17T20:54:32.476Z,57.35
2022-12-17T20:57:01.173Z,49.08
2022-12-17T20:59:34.891Z,64.13
2022-12-17T21:02:03.113Z,56.50
2022-12-17T21:04:31.332Z,54.92
2022-12-17T21:06:59.299Z,58.53
2022-12-17T21:09:27.371Z,55.35
2022-12-17T21:11:58.093Z,58.28
2022-12-17T21:14:30.434Z,63.13
2022-12-17T21:17:04.917Z,49.05
2022-12-17T21:19:33.462Z,51.25
2022-12-17T21:22:01.837Z,51.08
2022-12-17T21:24:29.890Z,54.10
2022-12-17T21:26:59.506Z,47.40
2022-12-17T21:29:28.552Z,51.35
2022-12-17T21:31:56.761Z,65.03
2022-12-17T21:34:29.245Z,49.70
2022-12-17T21:36:57.463Z,48.40
2022-12-17T21:39:25.449Z,43.88
2022-12-17T21:42:11.021Z,60.83
2022-12-17T21:44:40.424Z,44.95
2022-12-17T21:47:10.986Z,43.42
2022-12-17T21:49:39.071Z,52.50
2022-12-17T21:52:07.140Z,53.33
2022-12-17T21:54:37.087Z,48.83
2022-12-17T21:57:05.671Z,57.67
2022-12-17T21:59:33.760Z,41.92
2022-12-17T22:02:03.502Z,54.90
2022-12-17T22:04:31.784Z,48.58
2022-12-17T22:07:11.868Z,48.53
2022-12-17T22:09:51.610Z,57.05
2022-12-17T22:12:52.078Z,39.72
2022-12-17T22:15:20.375Z,44.35
2022-12-17T22:17:52.011Z,54.90
2022-12-17T22:20:20.553Z,55.63
2022-12-17T22:22:48.749Z,57.13
2022-12-17T22:25:17.639Z,52.85
2022-12-17T22:27:45.753Z,57.63
2022-12-17T22:30:34.583Z,50.63
2022-12-17T22:33:11.654Z,46.80
2022-12-17T22:42:41.842Z,57.90
2022-12-17T22:44:46.296Z,44.33
2022-12-17T22:45:08.108Z,51.80
2022-12-17T22:47:42.841Z,48.90
2022-12-17T22:50:24.466Z,53.35
2022-12-17T22:55:44.683Z,60.05
2022-12-17T22:58:12.706Z,54.83
2022-12-17T23:00:41.192Z,44.67
2022-12-17T23:03:09.245Z,47.85
2022-12-17T23:05:38.767Z,48.15
2022-12-17T23:08:07.123Z,52.15
2022-12-17T23:10:35.438Z,53.72
2022-12-17T23:13:03.561Z,60.10
2022-12-17T23:15:34.277Z,42.20
2022-12-17T23:18:04.359Z,53.03
2022-12-17T23:20:34.289Z,51.42
2022-12-17T23:23:03.800Z,69.55
2022-12-17T23:25:32.517Z,68.07
2022-12-17T23:28:03.451Z,48.47
2022-12-17T23:30:31.977Z,54.53
2022-12-17T23:33:02.802Z,59.40
2022-12-17T23:35:33.420Z,49.28
2022-12-17T23:38:02.830Z,50.65
2022-12-17T23:40:30.864Z,71.68
2022-12-17T23:43:03.414Z,59.25
2022-12-17T23:45:56.946Z,43.95
2022-12-17T23:48:47.064Z,50.20
2022-12-17T23:51:32.600Z,52.30
2022-12-17T23:54:18.004Z,57.20
2022-12-17T23:56:57.849Z,57.83
2022-12-17T23:59:33.766Z,49.17
